Pagina principale
METAR-TAF:

METAR-TAF

Aeroporti :

Aeroporto Internazionale Noi Bai

Hanoi, Vietnam

latitudine: 21-01N, longitudine: 105-48E, altezza: 6 m

Osservazione

Il bollettino è stato emesso 21 minuti fa, alle 22:00 UTC
Vento 4 kt da nord-est
Temperature 12°C
Umidità 82%
Pressione 1026 hPa
Visibilità 10 km o più
Nuvoloso ad un'altezza di 3000 ft

METAR: VVNB 122200Z 04004KT 9999 BKN030 12/09 Q1026 NOSIG

Ora: 05:21 (22:21 UTC)

Previsione

Il bollettino è stato emesso 5 ore e 21 minuti fa, alle 17:00 UTC
Previsione valida dal 12 alle 18 UTC al 13 alle 18 UTC
Vento 5 kt da nord-est
Visibilità 10 km o più
Nuvoloso ad un'altezza di 3500 ft

TAF: VVNB 121700Z 1218/1318 04005KT 9999 BKN035

Osservazioni e previsioni meteorologiche di più di 4000 aeroporti (messaggi METAR e TAF).

Le stazioni disponibili sono rappresentate dai dischi gialli e rossi sulla carta.

Puntare il mouse per vedere il nome della stazione.

Clicca sopra per visualizzare le osservazioni e previsioni meteorologiche.

Per cambiare la mappa : fare clic sui pulsanti verdi con una croce nera per ingrandire, il pulsante verde con un trattino per diminuire, o sulla freccia verde per le mappe adiacenti.


METAR-TAF: